Aeroporto :
LOGIN :

Iscrizione | Disclaimer

   EN    FR    IT 

 










Sommario :    VFR   VFR Marginale   IFR   IFR Intensivo   IFR Molto Intensivo
Visibilità : 
Base nubi : 
>= 8 km
>= 3000ft
5 / 8 km
1000 / 3000 ft
1500m / 5 km
500 / 1000 ft
800 / 1500m
200 / 500 ft
< 800m
< 200 ft
Simboli :   Temporali  Nebbia  Neve Forte  Precipitazioni Forti  Vento > 20 kt
SIGMETs :   Varie  Temporali  Ghiacco  Turbolenza  Onda orograficha  Ceneri Vulcaniche






- Altitudine del aeroporto : 464 ft
- Codice IATA : EVX


LFOE - Evreux

ULTIMO METAR :
  • 041400Z AUTO 07007KT 8000 OVC012 03/01 Q1012

METARs OBSOLETI :
  • 041330Z AUTO 07007KT 8000 OVC012 03/01 Q1012 BECMG OVC009
  • 041300Z AUTO 06007KT 7000 OVC011 03/01 Q1012 TEMPO 4000 -RASN BECMG OVC009
  • 041230Z AUTO 07007KT 7000 OVC010 03/01 Q1012 TEMPO 4000 -RASN
  • 041200Z AUTO 07007KT 7000 OVC010 03/01 Q1012 TEMPO 4000 -RASN
  • 041130Z AUTO 08008KT 8000 OVC010 03/01 Q1012 TEMPO 4000 -RASN
  • 041100Z AUTO 07007KT 7000 OVC010 02/01 Q1012 TEMPO 4000 -RASN

TAF AMD TAF LFOE
Valido dal 04 a 09 ore il 05 a 09 ore UTC


040800Z 0409/0509 08007KT 7000 OVC009
TEMPO 0410/0414 4000 -RASN OVC005
TEMPO 0500/0509 4000 -RASN OVC003



MetMap, La meteo Aeronautica in un colpo d'occhio ! - Copyright ORBIFLY Dicembre 2007 - Disclaimer

ORBIFLY MET'MAP TEAM :

Programmazione e sviluppo : Alexandra Zaïnal
Concezione : Baudouin d'Aumeries
Supporto tecnico e logistico : Manuel Goepfert
Aiuto : Marc-Olivier Méhu
Aiuto per la traduzione : Arnaldo La Scala




FONTI E CREDITI :

   NOAA